sensor_id;sensor_type;location;lat;lon;timestamp;P1;durP1;ratioP1;P2;durP2;ratioP2
7879;SDS011;3985;49.366;2.738;2023-12-20T00:01:34;5.75;;;4.75;;
7879;SDS011;3985;49.366;2.738;2023-12-20T00:04:05;8.00;;;5.75;;
7879;SDS011;3985;49.366;2.738;2023-12-20T00:06:33;3.00;;;1.50;;
7879;SDS011;3985;49.366;2.738;2023-12-20T00:09:00;1.25;;;1.25;;
7879;SDS011;3985;49.366;2.738;2023-12-20T00:11:27;2.00;;;2.00;;
7879;SDS011;3985;49.366;2.738;2023-12-20T00:13:57;1.25;;;1.25;;
7879;SDS011;3985;49.366;2.738;2023-12-20T00:16:31;1.00;;;1.00;;
7879;SDS011;3985;49.366;2.738;2023-12-20T00:19:00;4.00;;;1.00;;
7879;SDS011;3985;49.366;2.738;2023-12-20T00:21:28;1.50;;;1.00;;
7879;SDS011;3985;49.366;2.738;2023-12-20T00:23:55;2.00;;;2.00;;
7879;SDS011;3985;49.366;2.738;2023-12-20T00:26:22;1.00;;;1.00;;
7879;SDS011;3985;49.366;2.738;2023-12-20T00:28:49;1.25;;;1.25;;
7879;SDS011;3985;49.366;2.738;2023-12-20T00:31:17;0.50;;;0.50;;
7879;SDS011;3985;49.366;2.738;2023-12-20T00:33:45;1.00;;;1.00;;
7879;SDS011;3985;49.366;2.738;2023-12-20T00:36:12;1.00;;;1.00;;
7879;SDS011;3985;49.366;2.738;2023-12-20T00:38:40;1.75;;;1.75;;
7879;SDS011;3985;49.366;2.738;2023-12-20T00:41:07;2.50;;;1.00;;
7879;SDS011;3985;49.366;2.738;2023-12-20T00:43:34;1.00;;;1.00;;
7879;SDS011;3985;49.366;2.738;2023-12-20T00:46:01;1.00;;;1.00;;
7879;SDS011;3985;49.366;2.738;2023-12-20T00:48:29;1.00;;;1.00;;
7879;SDS011;3985;49.366;2.738;2023-12-20T00:50:57;2.75;;;1.00;;
7879;SDS011;3985;49.366;2.738;2023-12-20T00:53:25;1.50;;;1.50;;
7879;SDS011;3985;49.366;2.738;2023-12-20T00:55:52;3.00;;;1.00;;
7879;SDS011;3985;49.366;2.738;2023-12-20T00:58:19;2.00;;;2.00;;
7879;SDS011;3985;49.366;2.738;2023-12-20T01:00:47;1.00;;;1.00;;
7879;SDS011;3985;49.366;2.738;2023-12-20T01:03:14;3.00;;;1.00;;
7879;SDS011;3985;49.366;2.738;2023-12-20T01:05:41;3.00;;;1.00;;
7879;SDS011;3985;49.366;2.738;2023-12-20T01:08:10;3.00;;;1.00;;
7879;SDS011;3985;49.366;2.738;2023-12-20T01:10:37;1.00;;;1.00;;
7879;SDS011;3985;49.366;2.738;2023-12-20T01:13:05;1.75;;;1.75;;
7879;SDS011;3985;49.366;2.738;2023-12-20T01:15:39;1.00;;;1.00;;
7879;SDS011;3985;49.366;2.738;2023-12-20T01:18:07;3.00;;;3.00;;
7879;SDS011;3985;49.366;2.738;2023-12-20T01:20:35;2.00;;;2.00;;
7879;SDS011;3985;49.366;2.738;2023-12-20T01:23:03;4.50;;;1.00;;
7879;SDS011;3985;49.366;2.738;2023-12-20T01:25:32;1.25;;;1.25;;
7879;SDS011;3985;49.366;2.738;2023-12-20T01:28:00;1.50;;;1.50;;
7879;SDS011;3985;49.366;2.738;2023-12-20T01:30:34;0.75;;;0.75;;
7879;SDS011;3985;49.366;2.738;2023-12-20T01:33:01;1.50;;;1.50;;
7879;SDS011;3985;49.366;2.738;2023-12-20T01:35:28;1.25;;;1.25;;
7879;SDS011;3985;49.366;2.738;2023-12-20T01:37:56;2.00;;;2.00;;
7879;SDS011;3985;49.366;2.738;2023-12-20T01:40:23;0.00;;;0.00;;
7879;SDS011;3985;49.366;2.738;2023-12-20T01:42:58;5.50;;;2.00;;
7879;SDS011;3985;49.366;2.738;2023-12-20T01:45:26;1.00;;;1.00;;
7879;SDS011;3985;49.366;2.738;2023-12-20T01:47:53;0.00;;;0.00;;
7879;SDS011;3985;49.366;2.738;2023-12-20T01:50:21;0.75;;;0.75;;
7879;SDS011;3985;49.366;2.738;2023-12-20T01:52:49;2.50;;;1.00;;
7879;SDS011;3985;49.366;2.738;2023-12-20T01:55:17;1.00;;;1.00;;
7879;SDS011;3985;49.366;2.738;2023-12-20T01:57:45;3.00;;;1.00;;
7879;SDS011;3985;49.366;2.738;2023-12-20T02:00:15;1.00;;;0.25;;
7879;SDS011;3985;49.366;2.738;2023-12-20T02:02:42;0.00;;;0.00;;
7879;SDS011;3985;49.366;2.738;2023-12-20T02:05:10;1.00;;;1.00;;
7879;SDS011;3985;49.366;2.738;2023-12-20T02:07:37;1.00;;;1.00;;
7879;SDS011;3985;49.366;2.738;2023-12-20T02:10:05;1.75;;;1.75;;
7879;SDS011;3985;49.366;2.738;2023-12-20T02:12:33;1.00;;;1.00;;
7879;SDS011;3985;49.366;2.738;2023-12-20T02:15:03;0.25;;;0.25;;
7879;SDS011;3985;49.366;2.738;2023-12-20T02:17:41;1.50;;;1.00;;
7879;SDS011;3985;49.366;2.738;2023-12-20T02:20:08;3.00;;;0.75;;
7879;SDS011;3985;49.366;2.738;2023-12-20T02:22:37;1.00;;;1.00;;
7879;SDS011;3985;49.366;2.738;2023-12-20T02:25:05;1.00;;;1.00;;
7879;SDS011;3985;49.366;2.738;2023-12-20T02:27:33;1.00;;;1.00;;
7879;SDS011;3985;49.366;2.738;2023-12-20T02:30:01;1.00;;;1.00;;
7879;SDS011;3985;49.366;2.738;2023-12-20T02:32:29;1.25;;;1.00;;
7879;SDS011;3985;49.366;2.738;2023-12-20T02:34:56;1.25;;;1.25;;
7879;SDS011;3985;49.366;2.738;2023-12-20T02:37:23;1.75;;;1.75;;
7879;SDS011;3985;49.366;2.738;2023-12-20T02:39:52;2.50;;;1.00;;
7879;SDS011;3985;49.366;2.738;2023-12-20T02:42:19;0.75;;;0.75;;
7879;SDS011;3985;49.366;2.738;2023-12-20T02:44:47;0.25;;;0.25;;
7879;SDS011;3985;49.366;2.738;2023-12-20T02:47:14;1.00;;;1.00;;
7879;SDS011;3985;49.366;2.738;2023-12-20T02:49:41;2.00;;;0.25;;
7879;SDS011;3985;49.366;2.738;2023-12-20T02:52:08;2.00;;;2.00;;
7879;SDS011;3985;49.366;2.738;2023-12-20T02:54:36;3.00;;;2.50;;
7879;SDS011;3985;49.366;2.738;2023-12-20T02:57:04;3.00;;;1.25;;
7879;SDS011;3985;49.366;2.738;2023-12-20T02:59:34;2.00;;;2.00;;
7879;SDS011;3985;49.366;2.738;2023-12-20T03:02:01;2.00;;;2.00;;
7879;SDS011;3985;49.366;2.738;2023-12-20T03:04:29;1.50;;;1.50;;
7879;SDS011;3985;49.366;2.738;2023-12-20T03:06:56;3.00;;;3.00;;
7879;SDS011;3985;49.366;2.738;2023-12-20T03:09:24;2.00;;;2.00;;
7879;SDS011;3985;49.366;2.738;2023-12-20T03:11:51;5.00;;;5.00;;
7879;SDS011;3985;49.366;2.738;2023-12-20T03:14:20;3.00;;;3.00;;
7879;SDS011;3985;49.366;2.738;2023-12-20T03:16:47;2.00;;;2.00;;
7879;SDS011;3985;49.366;2.738;2023-12-20T03:19:16;2.25;;;2.00;;
7879;SDS011;3985;49.366;2.738;2023-12-20T03:21:43;0.75;;;0.75;;
7879;SDS011;3985;49.366;2.738;2023-12-20T03:24:11;2.00;;;2.00;;
7879;SDS011;3985;49.366;2.738;2023-12-20T03:26:38;3.00;;;3.00;;
7879;SDS011;3985;49.366;2.738;2023-12-20T03:29:05;1.00;;;1.00;;
7879;SDS011;3985;49.366;2.738;2023-12-20T03:31:34;1.75;;;1.75;;
7879;SDS011;3985;49.366;2.738;2023-12-20T03:34:01;3.50;;;1.25;;
7879;SDS011;3985;49.366;2.738;2023-12-20T03:36:28;2.75;;;1.50;;
7879;SDS011;3985;49.366;2.738;2023-12-20T03:38:55;1.75;;;1.50;;
7879;SDS011;3985;49.366;2.738;2023-12-20T03:41:23;1.00;;;1.00;;
7879;SDS011;3985;49.366;2.738;2023-12-20T03:43:50;5.50;;;2.00;;
7879;SDS011;3985;49.366;2.738;2023-12-20T03:46:17;7.00;;;4.75;;
7879;SDS011;3985;49.366;2.738;2023-12-20T03:48:46;1.75;;;1.75;;
7879;SDS011;3985;49.366;2.738;2023-12-20T03:51:13;3.00;;;2.50;;
7879;SDS011;3985;49.366;2.738;2023-12-20T03:53:40;2.00;;;2.00;;
7879;SDS011;3985;49.366;2.738;2023-12-20T03:56:07;6.00;;;5.00;;
7879;SDS011;3985;49.366;2.738;2023-12-20T03:58:34;2.50;;;2.50;;
7879;SDS011;3985;49.366;2.738;2023-12-20T04:01:02;2.75;;;2.75;;
7879;SDS011;3985;49.366;2.738;2023-12-20T04:03:29;2.75;;;2.00;;
7879;SDS011;3985;49.366;2.738;2023-12-20T04:05:58;3.00;;;3.00;;
7879;SDS011;3985;49.366;2.738;2023-12-20T04:08:25;2.00;;;2.00;;
7879;SDS011;3985;49.366;2.738;2023-12-20T04:10:52;3.00;;;3.00;;
7879;SDS011;3985;49.366;2.738;2023-12-20T04:13:20;5.00;;;4.50;;
7879;SDS011;3985;49.366;2.738;2023-12-20T04:15:47;2.00;;;2.00;;
7879;SDS011;3985;49.366;2.738;2023-12-20T04:18:16;3.00;;;1.75;;
7879;SDS011;3985;49.366;2.738;2023-12-20T04:20:43;2.00;;;2.00;;
7879;SDS011;3985;49.366;2.738;2023-12-20T04:23:12;7.00;;;2.25;;
7879;SDS011;3985;49.366;2.738;2023-12-20T04:25:39;3.50;;;2.00;;
7879;SDS011;3985;49.366;2.738;2023-12-20T04:28:06;1.50;;;1.50;;
7879;SDS011;3985;49.366;2.738;2023-12-20T04:30:34;1.00;;;1.00;;
7879;SDS011;3985;49.366;2.738;2023-12-20T04:33:01;2.25;;;2.25;;
7879;SDS011;3985;49.366;2.738;2023-12-20T04:35:29;2.00;;;1.00;;
7879;SDS011;3985;49.366;2.738;2023-12-20T04:37:56;0.75;;;0.75;;
7879;SDS011;3985;49.366;2.738;2023-12-20T04:40:28;1.00;;;1.00;;
7879;SDS011;3985;49.366;2.738;2023-12-20T04:42:56;5.00;;;1.00;;
7879;SDS011;3985;49.366;2.738;2023-12-20T04:45:23;5.00;;;2.00;;
7879;SDS011;3985;49.366;2.738;2023-12-20T04:47:51;2.50;;;2.50;;
7879;SDS011;3985;49.366;2.738;2023-12-20T04:50:18;2.00;;;2.00;;
7879;SDS011;3985;49.366;2.738;2023-12-20T04:52:46;1.75;;;1.25;;
7879;SDS011;3985;49.366;2.738;2023-12-20T04:55:14;1.50;;;1.50;;
7879;SDS011;3985;49.366;2.738;2023-12-20T04:57:43;0.00;;;0.00;;
7879;SDS011;3985;49.366;2.738;2023-12-20T05:00:11;4.00;;;2.50;;
7879;SDS011;3985;49.366;2.738;2023-12-20T05:02:40;1.00;;;1.00;;
7879;SDS011;3985;49.366;2.738;2023-12-20T05:05:07;2.50;;;1.00;;
7879;SDS011;3985;49.366;2.738;2023-12-20T05:07:36;1.00;;;1.00;;
7879;SDS011;3985;49.366;2.738;2023-12-20T05:10:03;1.75;;;1.75;;
7879;SDS011;3985;49.366;2.738;2023-12-20T05:12:33;2.00;;;2.00;;
7879;SDS011;3985;49.366;2.738;2023-12-20T05:15:02;1.00;;;1.00;;
7879;SDS011;3985;49.366;2.738;2023-12-20T05:17:29;1.25;;;1.25;;
7879;SDS011;3985;49.366;2.738;2023-12-20T05:19:57;1.25;;;1.00;;
7879;SDS011;3985;49.366;2.738;2023-12-20T05:22:25;2.00;;;2.00;;
7879;SDS011;3985;49.366;2.738;2023-12-20T05:24:52;2.00;;;1.00;;
7879;SDS011;3985;49.366;2.738;2023-12-20T05:27:22;12.50;;;9.25;;
7879;SDS011;3985;49.366;2.738;2023-12-20T05:29:49;2.75;;;1.00;;
7879;SDS011;3985;49.366;2.738;2023-12-20T05:32:28;1.00;;;1.00;;
7879;SDS011;3985;49.366;2.738;2023-12-20T05:34:55;2.00;;;2.00;;
7879;SDS011;3985;49.366;2.738;2023-12-20T05:37:22;1.75;;;1.75;;
7879;SDS011;3985;49.366;2.738;2023-12-20T05:39:49;2.25;;;1.00;;
7879;SDS011;3985;49.366;2.738;2023-12-20T05:42:17;1.00;;;1.00;;
7879;SDS011;3985;49.366;2.738;2023-12-20T05:44:47;1.00;;;1.00;;
7879;SDS011;3985;49.366;2.738;2023-12-20T05:47:14;1.00;;;1.00;;
7879;SDS011;3985;49.366;2.738;2023-12-20T05:49:45;2.75;;;2.00;;
7879;SDS011;3985;49.366;2.738;2023-12-20T05:52:13;2.00;;;0.00;;
7879;SDS011;3985;49.366;2.738;2023-12-20T05:54:40;1.00;;;1.00;;
7879;SDS011;3985;49.366;2.738;2023-12-20T05:57:08;1.00;;;1.00;;
7879;SDS011;3985;49.366;2.738;2023-12-20T05:59:35;2.00;;;1.00;;
7879;SDS011;3985;49.366;2.738;2023-12-20T06:02:03;1.00;;;1.00;;
7879;SDS011;3985;49.366;2.738;2023-12-20T06:04:30;1.00;;;1.00;;
7879;SDS011;3985;49.366;2.738;2023-12-20T06:06:59;3.00;;;2.75;;
7879;SDS011;3985;49.366;2.738;2023-12-20T06:09:28;2.00;;;2.00;;
7879;SDS011;3985;49.366;2.738;2023-12-20T06:11:55;1.00;;;1.00;;
7879;SDS011;3985;49.366;2.738;2023-12-20T06:14:23;3.00;;;1.75;;
7879;SDS011;3985;49.366;2.738;2023-12-20T06:16:50;2.00;;;1.00;;
7879;SDS011;3985;49.366;2.738;2023-12-20T06:19:17;6.00;;;3.00;;
7879;SDS011;3985;49.366;2.738;2023-12-20T06:21:44;5.00;;;3.50;;
7879;SDS011;3985;49.366;2.738;2023-12-20T06:24:13;3.25;;;3.25;;
7879;SDS011;3985;49.366;2.738;2023-12-20T06:26:40;11.25;;;5.25;;
7879;SDS011;3985;49.366;2.738;2023-12-20T06:29:07;3.00;;;3.00;;
7879;SDS011;3985;49.366;2.738;2023-12-20T06:31:35;4.00;;;4.00;;
7879;SDS011;3985;49.366;2.738;2023-12-20T06:34:02;3.25;;;3.25;;
7879;SDS011;3985;49.366;2.738;2023-12-20T06:36:29;5.25;;;3.00;;
7879;SDS011;3985;49.366;2.738;2023-12-20T06:38:56;6.00;;;3.00;;
7879;SDS011;3985;49.366;2.738;2023-12-20T06:41:25;3.50;;;3.00;;
7879;SDS011;3985;49.366;2.738;2023-12-20T06:43:52;7.00;;;2.75;;
7879;SDS011;3985;49.366;2.738;2023-12-20T06:46:19;5.00;;;5.00;;
7879;SDS011;3985;49.366;2.738;2023-12-20T06:48:47;5.00;;;2.00;;
7879;SDS011;3985;49.366;2.738;2023-12-20T06:51:14;6.00;;;3.50;;
7879;SDS011;3985;49.366;2.738;2023-12-20T06:53:42;5.00;;;2.00;;
7879;SDS011;3985;49.366;2.738;2023-12-20T06:56:12;5.25;;;5.25;;
7879;SDS011;3985;49.366;2.738;2023-12-20T06:58:42;1.50;;;1.50;;
7879;SDS011;3985;49.366;2.738;2023-12-20T07:01:10;2.50;;;2.50;;
7879;SDS011;3985;49.366;2.738;2023-12-20T07:03:38;0.75;;;0.75;;
7879;SDS011;3985;49.366;2.738;2023-12-20T07:06:05;5.50;;;2.75;;
7879;SDS011;3985;49.366;2.738;2023-12-20T07:08:32;4.25;;;2.25;;
7879;SDS011;3985;49.366;2.738;2023-12-20T07:10:59;3.00;;;3.00;;
7879;SDS011;3985;49.366;2.738;2023-12-20T07:13:27;8.25;;;5.00;;
7879;SDS011;3985;49.366;2.738;2023-12-20T07:15:57;4.00;;;4.00;;
7879;SDS011;3985;49.366;2.738;2023-12-20T07:18:24;5.00;;;5.00;;
7879;SDS011;3985;49.366;2.738;2023-12-20T07:20:52;6.25;;;5.00;;
7879;SDS011;3985;49.366;2.738;2023-12-20T07:23:20;10.75;;;5.50;;
7879;SDS011;3985;49.366;2.738;2023-12-20T07:25:47;3.00;;;3.00;;
7879;SDS011;3985;49.366;2.738;2023-12-20T07:28:14;7.50;;;3.00;;
7879;SDS011;3985;49.366;2.738;2023-12-20T07:30:41;5.00;;;5.00;;
7879;SDS011;3985;49.366;2.738;2023-12-20T07:33:13;6.00;;;4.50;;
7879;SDS011;3985;49.366;2.738;2023-12-20T07:35:40;6.00;;;4.00;;
7879;SDS011;3985;49.366;2.738;2023-12-20T07:38:19;3.50;;;3.00;;
7879;SDS011;3985;49.366;2.738;2023-12-20T07:41:36;3.50;;;3.50;;
7879;SDS011;3985;49.366;2.738;2023-12-20T07:44:20;3.25;;;3.25;;
7879;SDS011;3985;49.366;2.738;2023-12-20T07:47:00;6.50;;;5.00;;
7879;SDS011;3985;49.366;2.738;2023-12-20T07:49:31;6.00;;;6.00;;
7879;SDS011;3985;49.366;2.738;2023-12-20T07:52:01;6.00;;;6.00;;
7879;SDS011;3985;49.366;2.738;2023-12-20T07:54:28;7.00;;;6.00;;
7879;SDS011;3985;49.366;2.738;2023-12-20T07:56:58;3.00;;;3.00;;
7879;SDS011;3985;49.366;2.738;2023-12-20T07:59:28;6.50;;;6.50;;
7879;SDS011;3985;49.366;2.738;2023-12-20T08:01:59;8.25;;;5.25;;
7879;SDS011;3985;49.366;2.738;2023-12-20T08:04:26;4.75;;;4.25;;
7879;SDS011;3985;49.366;2.738;2023-12-20T08:06:54;4.50;;;4.50;;
7879;SDS011;3985;49.366;2.738;2023-12-20T08:09:22;6.50;;;3.50;;
7879;SDS011;3985;49.366;2.738;2023-12-20T08:11:49;5.75;;;5.75;;
7879;SDS011;3985;49.366;2.738;2023-12-20T08:14:16;6.00;;;6.00;;
7879;SDS011;3985;49.366;2.738;2023-12-20T08:16:43;3.50;;;3.50;;
7879;SDS011;3985;49.366;2.738;2023-12-20T08:19:10;3.00;;;3.00;;
7879;SDS011;3985;49.366;2.738;2023-12-20T08:21:38;8.50;;;6.25;;
7879;SDS011;3985;49.366;2.738;2023-12-20T08:24:07;5.00;;;5.00;;
7879;SDS011;3985;49.366;2.738;2023-12-20T08:26:35;5.00;;;3.00;;
7879;SDS011;3985;49.366;2.738;2023-12-20T08:29:02;7.00;;;5.50;;
7879;SDS011;3985;49.366;2.738;2023-12-20T08:31:29;6.50;;;6.50;;
7879;SDS011;3985;49.366;2.738;2023-12-20T08:33:56;8.50;;;6.25;;
7879;SDS011;3985;49.366;2.738;2023-12-20T08:36:27;5.00;;;5.00;;
7879;SDS011;3985;49.366;2.738;2023-12-20T08:38:54;5.00;;;5.00;;
7879;SDS011;3985;49.366;2.738;2023-12-20T08:41:22;7.50;;;5.00;;
7879;SDS011;3985;49.366;2.738;2023-12-20T08:43:50;8.50;;;8.50;;
7879;SDS011;3985;49.366;2.738;2023-12-20T08:46:17;5.25;;;5.25;;
7879;SDS011;3985;49.366;2.738;2023-12-20T08:48:44;6.25;;;6.25;;
7879;SDS011;3985;49.366;2.738;2023-12-20T08:51:12;6.75;;;5.00;;
7879;SDS011;3985;49.366;2.738;2023-12-20T08:53:40;6.25;;;6.25;;
7879;SDS011;3985;49.366;2.738;2023-12-20T08:56:10;8.00;;;5.50;;
7879;SDS011;3985;49.366;2.738;2023-12-20T08:58:38;5.00;;;5.00;;
7879;SDS011;3985;49.366;2.738;2023-12-20T09:01:08;5.00;;;4.50;;
7879;SDS011;3985;49.366;2.738;2023-12-20T09:03:36;4.25;;;4.25;;
7879;SDS011;3985;49.366;2.738;2023-12-20T09:06:03;2.00;;;2.00;;
7879;SDS011;3985;49.366;2.738;2023-12-20T09:08:31;7.75;;;5.75;;
7879;SDS011;3985;49.366;2.738;2023-12-20T09:10:58;4.75;;;4.75;;
7879;SDS011;3985;49.366;2.738;2023-12-20T09:13:25;6.00;;;4.25;;
7879;SDS011;3985;49.366;2.738;2023-12-20T09:15:54;3.00;;;3.00;;
7879;SDS011;3985;49.366;2.738;2023-12-20T09:18:22;4.25;;;4.25;;
7879;SDS011;3985;49.366;2.738;2023-12-20T09:20:49;6.00;;;6.00;;
7879;SDS011;3985;49.366;2.738;2023-12-20T09:23:16;10.50;;;4.25;;
7879;SDS011;3985;49.366;2.738;2023-12-20T09:25:44;3.75;;;3.75;;
7879;SDS011;3985;49.366;2.738;2023-12-20T09:28:11;3.50;;;3.00;;
7879;SDS011;3985;49.366;2.738;2023-12-20T09:30:38;3.00;;;3.00;;
7879;SDS011;3985;49.366;2.738;2023-12-20T09:33:07;7.00;;;5.00;;
7879;SDS011;3985;49.366;2.738;2023-12-20T09:35:35;4.00;;;4.00;;
7879;SDS011;3985;49.366;2.738;2023-12-20T09:38:02;3.25;;;3.00;;
7879;SDS011;3985;49.366;2.738;2023-12-20T09:40:29;6.00;;;6.00;;
7879;SDS011;3985;49.366;2.738;2023-12-20T09:43:03;6.75;;;6.75;;
7879;SDS011;3985;49.366;2.738;2023-12-20T09:45:31;4.00;;;4.00;;
7879;SDS011;3985;49.366;2.738;2023-12-20T09:47:58;6.75;;;4.50;;
7879;SDS011;3985;49.366;2.738;2023-12-20T09:50:27;3.50;;;2.50;;
7879;SDS011;3985;49.366;2.738;2023-12-20T09:52:55;3.25;;;3.00;;
7879;SDS011;3985;49.366;2.738;2023-12-20T09:55:25;8.00;;;4.00;;
7879;SDS011;3985;49.366;2.738;2023-12-20T09:57:52;6.50;;;4.00;;
7879;SDS011;3985;49.366;2.738;2023-12-20T10:00:19;4.75;;;4.75;;
7879;SDS011;3985;49.366;2.738;2023-12-20T10:02:49;5.50;;;2.75;;
7879;SDS011;3985;49.366;2.738;2023-12-20T10:05:19;6.75;;;3.25;;
7879;SDS011;3985;49.366;2.738;2023-12-20T10:07:56;7.00;;;4.00;;
7879;SDS011;3985;49.366;2.738;2023-12-20T10:10:26;6.25;;;3.75;;
7879;SDS011;3985;49.366;2.738;2023-12-20T10:13:03;5.75;;;4.00;;
7879;SDS011;3985;49.366;2.738;2023-12-20T10:15:32;7.00;;;4.75;;
7879;SDS011;3985;49.366;2.738;2023-12-20T10:17:59;5.00;;;5.00;;
7879;SDS011;3985;49.366;2.738;2023-12-20T10:20:27;3.50;;;2.25;;
7879;SDS011;3985;49.366;2.738;2023-12-20T10:22:55;8.00;;;3.00;;
7879;SDS011;3985;49.366;2.738;2023-12-20T10:25:24;8.00;;;3.75;;
7879;SDS011;3985;49.366;2.738;2023-12-20T10:28:09;4.00;;;4.00;;
7879;SDS011;3985;49.366;2.738;2023-12-20T10:30:37;2.75;;;2.75;;
7879;SDS011;3985;49.366;2.738;2023-12-20T10:33:05;3.75;;;3.25;;
7879;SDS011;3985;49.366;2.738;2023-12-20T10:35:33;1.00;;;1.00;;
7879;SDS011;3985;49.366;2.738;2023-12-20T10:38:03;2.00;;;2.00;;
7879;SDS011;3985;49.366;2.738;2023-12-20T10:40:31;4.75;;;3.00;;
7879;SDS011;3985;49.366;2.738;2023-12-20T10:43:01;9.25;;;4.00;;
7879;SDS011;3985;49.366;2.738;2023-12-20T10:45:29;5.00;;;3.50;;
7879;SDS011;3985;49.366;2.738;2023-12-20T10:47:56;4.75;;;3.25;;
7879;SDS011;3985;49.366;2.738;2023-12-20T10:50:26;2.00;;;2.00;;
7879;SDS011;3985;49.366;2.738;2023-12-20T10:52:53;3.25;;;2.50;;
7879;SDS011;3985;49.366;2.738;2023-12-20T10:55:23;7.50;;;4.00;;
7879;SDS011;3985;49.366;2.738;2023-12-20T10:57:51;3.25;;;3.00;;
7879;SDS011;3985;49.366;2.738;2023-12-20T11:00:18;3.50;;;3.50;;
7879;SDS011;3985;49.366;2.738;2023-12-20T11:02:46;4.00;;;4.00;;
7879;SDS011;3985;49.366;2.738;2023-12-20T11:05:24;5.50;;;4.25;;
7879;SDS011;3985;49.366;2.738;2023-12-20T11:07:57;7.50;;;2.50;;
7879;SDS011;3985;49.366;2.738;2023-12-20T11:10:33;4.00;;;3.00;;
7879;SDS011;3985;49.366;2.738;2023-12-20T11:13:09;1.75;;;1.75;;
7879;SDS011;3985;49.366;2.738;2023-12-20T11:15:39;2.00;;;2.00;;
7879;SDS011;3985;49.366;2.738;2023-12-20T11:18:07;4.00;;;4.00;;
7879;SDS011;3985;49.366;2.738;2023-12-20T11:20:38;2.75;;;2.75;;
7879;SDS011;3985;49.366;2.738;2023-12-20T11:23:07;2.50;;;2.50;;
7879;SDS011;3985;49.366;2.738;2023-12-20T11:25:49;3.25;;;3.00;;
7879;SDS011;3985;49.366;2.738;2023-12-20T11:28:21;4.00;;;2.50;;
7879;SDS011;3985;49.366;2.738;2023-12-20T11:30:49;2.75;;;2.75;;
7879;SDS011;3985;49.366;2.738;2023-12-20T11:33:21;2.75;;;1.50;;
7879;SDS011;3985;49.366;2.738;2023-12-20T11:35:48;4.00;;;2.50;;
7879;SDS011;3985;49.366;2.738;2023-12-20T11:38:16;3.00;;;2.00;;
7879;SDS011;3985;49.366;2.738;2023-12-20T11:40:44;1.75;;;1.75;;
7879;SDS011;3985;49.366;2.738;2023-12-20T11:43:13;1.75;;;1.75;;
7879;SDS011;3985;49.366;2.738;2023-12-20T11:45:59;3.00;;;3.00;;
7879;SDS011;3985;49.366;2.738;2023-12-20T11:48:30;2.50;;;2.50;;
7879;SDS011;3985;49.366;2.738;2023-12-20T11:50:58;2.00;;;2.00;;
7879;SDS011;3985;49.366;2.738;2023-12-20T11:53:25;2.67;;;2.67;;
7879;SDS011;3985;49.366;2.738;2023-12-20T11:55:53;2.00;;;2.00;;
7879;SDS011;3985;49.366;2.738;2023-12-20T11:58:23;5.00;;;3.33;;
7879;SDS011;3985;49.366;2.738;2023-12-20T12:00:50;3.00;;;3.00;;
7879;SDS011;3985;49.366;2.738;2023-12-20T12:03:18;5.00;;;3.00;;
7879;SDS011;3985;49.366;2.738;2023-12-20T12:05:46;2.00;;;2.00;;
7879;SDS011;3985;49.366;2.738;2023-12-20T12:08:14;3.67;;;3.67;;
7879;SDS011;3985;49.366;2.738;2023-12-20T12:10:42;4.00;;;2.67;;
7879;SDS011;3985;49.366;2.738;2023-12-20T12:13:09;4.00;;;2.00;;
7879;SDS011;3985;49.366;2.738;2023-12-20T12:15:38;4.00;;;3.67;;
7879;SDS011;3985;49.366;2.738;2023-12-20T12:18:07;3.67;;;2.00;;
7879;SDS011;3985;49.366;2.738;2023-12-20T12:20:35;4.50;;;2.75;;
7879;SDS011;3985;49.366;2.738;2023-12-20T12:23:03;3.00;;;3.00;;
7879;SDS011;3985;49.366;2.738;2023-12-20T12:25:31;5.00;;;2.00;;
7879;SDS011;3985;49.366;2.738;2023-12-20T12:28:01;3.67;;;2.67;;
7879;SDS011;3985;49.366;2.738;2023-12-20T12:30:28;1.00;;;1.00;;
7879;SDS011;3985;49.366;2.738;2023-12-20T12:32:57;4.50;;;4.25;;
7879;SDS011;3985;49.366;2.738;2023-12-20T12:35:24;4.00;;;3.00;;
7879;SDS011;3985;49.366;2.738;2023-12-20T12:37:53;6.50;;;3.50;;
7879;SDS011;3985;49.366;2.738;2023-12-20T12:40:20;5.00;;;2.50;;
7879;SDS011;3985;49.366;2.738;2023-12-20T12:42:47;5.00;;;3.50;;
7879;SDS011;3985;49.366;2.738;2023-12-20T12:45:15;6.50;;;3.50;;
7879;SDS011;3985;49.366;2.738;2023-12-20T12:47:42;4.00;;;2.25;;
7879;SDS011;3985;49.366;2.738;2023-12-20T12:50:12;3.33;;;3.00;;
7879;SDS011;3985;49.366;2.738;2023-12-20T12:52:39;3.00;;;2.00;;
7879;SDS011;3985;49.366;2.738;2023-12-20T12:55:07;2.00;;;2.00;;
7879;SDS011;3985;49.366;2.738;2023-12-20T12:57:37;3.00;;;3.00;;
7879;SDS011;3985;49.366;2.738;2023-12-20T13:00:07;2.00;;;2.00;;
7879;SDS011;3985;49.366;2.738;2023-12-20T13:02:38;4.33;;;2.33;;
7879;SDS011;3985;49.366;2.738;2023-12-20T13:05:07;2.33;;;2.33;;
7879;SDS011;3985;49.366;2.738;2023-12-20T13:07:44;3.00;;;2.00;;
7879;SDS011;3985;49.366;2.738;2023-12-20T13:10:11;2.67;;;0.33;;
7879;SDS011;3985;49.366;2.738;2023-12-20T13:12:38;2.00;;;0.00;;
7879;SDS011;3985;49.366;2.738;2023-12-20T13:15:06;4.00;;;2.00;;
7879;SDS011;3985;49.366;2.738;2023-12-20T13:17:34;1.00;;;1.00;;
7879;SDS011;3985;49.366;2.738;2023-12-20T13:20:02;4.00;;;2.00;;
7879;SDS011;3985;49.366;2.738;2023-12-20T13:22:30;2.00;;;2.00;;
7879;SDS011;3985;49.366;2.738;2023-12-20T13:24:59;1.00;;;1.00;;
7879;SDS011;3985;49.366;2.738;2023-12-20T13:27:27;3.00;;;3.00;;
7879;SDS011;3985;49.366;2.738;2023-12-20T13:29:58;2.33;;;2.33;;
7879;SDS011;3985;49.366;2.738;2023-12-20T13:32:25;4.33;;;2.00;;
7879;SDS011;3985;49.366;2.738;2023-12-20T13:34:52;3.00;;;3.00;;
7879;SDS011;3985;49.366;2.738;2023-12-20T13:37:19;7.33;;;2.67;;
7879;SDS011;3985;49.366;2.738;2023-12-20T13:39:46;2.00;;;2.00;;
7879;SDS011;3985;49.366;2.738;2023-12-20T13:42:15;1.33;;;1.33;;
7879;SDS011;3985;49.366;2.738;2023-12-20T13:44:42;3.00;;;3.00;;
7879;SDS011;3985;49.366;2.738;2023-12-20T13:47:09;4.67;;;3.00;;
7879;SDS011;3985;49.366;2.738;2023-12-20T13:49:37;3.00;;;3.00;;
7879;SDS011;3985;49.366;2.738;2023-12-20T13:52:04;6.67;;;2.33;;
7879;SDS011;3985;49.366;2.738;2023-12-20T13:54:32;5.00;;;2.00;;
7879;SDS011;3985;49.366;2.738;2023-12-20T13:56:59;3.00;;;3.00;;
7879;SDS011;3985;49.366;2.738;2023-12-20T13:59:29;2.00;;;2.00;;
7879;SDS011;3985;49.366;2.738;2023-12-20T14:01:56;3.75;;;3.00;;
7879;SDS011;3985;49.366;2.738;2023-12-20T14:04:26;3.75;;;3.75;;
7879;SDS011;3985;49.366;2.738;2023-12-20T14:06:53;4.50;;;3.00;;
7879;SDS011;3985;49.366;2.738;2023-12-20T14:09:27;3.00;;;3.00;;
7879;SDS011;3985;49.366;2.738;2023-12-20T14:11:56;2.00;;;2.00;;
7879;SDS011;3985;49.366;2.738;2023-12-20T14:14:24;3.25;;;3.25;;
7879;SDS011;3985;49.366;2.738;2023-12-20T14:16:52;4.75;;;3.00;;
7879;SDS011;3985;49.366;2.738;2023-12-20T14:19:20;4.50;;;2.00;;
7879;SDS011;3985;49.366;2.738;2023-12-20T14:21:48;4.50;;;3.00;;
7879;SDS011;3985;49.366;2.738;2023-12-20T14:24:15;2.25;;;2.25;;
7879;SDS011;3985;49.366;2.738;2023-12-20T14:26:43;5.50;;;4.00;;
7879;SDS011;3985;49.366;2.738;2023-12-20T14:29:10;3.75;;;3.75;;
7879;SDS011;3985;49.366;2.738;2023-12-20T14:31:37;3.00;;;3.00;;
7879;SDS011;3985;49.366;2.738;2023-12-20T14:34:08;2.50;;;2.50;;
7879;SDS011;3985;49.366;2.738;2023-12-20T14:36:36;7.50;;;3.00;;
7879;SDS011;3985;49.366;2.738;2023-12-20T14:39:03;4.00;;;3.00;;
7879;SDS011;3985;49.366;2.738;2023-12-20T14:41:31;4.75;;;2.50;;
7879;SDS011;3985;49.366;2.738;2023-12-20T14:43:58;4.00;;;2.00;;
7879;SDS011;3985;49.366;2.738;2023-12-20T14:46:25;4.75;;;3.75;;
7879;SDS011;3985;49.366;2.738;2023-12-20T14:48:54;2.75;;;2.75;;
7879;SDS011;3985;49.366;2.738;2023-12-20T14:51:23;3.00;;;3.00;;
7879;SDS011;3985;49.366;2.738;2023-12-20T14:53:50;3.25;;;2.00;;
7879;SDS011;3985;49.366;2.738;2023-12-20T14:56:18;3.25;;;3.00;;
7879;SDS011;3985;49.366;2.738;2023-12-20T14:58:45;2.25;;;2.25;;
7879;SDS011;3985;49.366;2.738;2023-12-20T15:01:12;3.00;;;2.75;;
7879;SDS011;3985;49.366;2.738;2023-12-20T15:03:39;3.00;;;3.00;;
7879;SDS011;3985;49.366;2.738;2023-12-20T15:06:09;2.00;;;2.00;;
7879;SDS011;3985;49.366;2.738;2023-12-20T15:08:38;2.50;;;2.50;;
7879;SDS011;3985;49.366;2.738;2023-12-20T15:11:06;5.00;;;3.00;;
7879;SDS011;3985;49.366;2.738;2023-12-20T15:13:33;4.50;;;3.00;;
7879;SDS011;3985;49.366;2.738;2023-12-20T15:16:00;6.50;;;3.25;;
7879;SDS011;3985;49.366;2.738;2023-12-20T15:18:28;3.50;;;3.00;;
7879;SDS011;3985;49.366;2.738;2023-12-20T15:20:56;5.00;;;3.25;;
7879;SDS011;3985;49.366;2.738;2023-12-20T15:23:24;8.00;;;3.50;;